DENVER INTL

KDEN (DEN)
Denver, Colorado
Towered

Vatsim Metar:
KDEN 161453Z 00000KT 8SM FEW080 SCT150 BKN220 M03/M06 A2947 RMK AO2 SLP987 VIRGA DSNT NW-N T10331061 56016

No ATC Online

Traffic

Inbound:
Ident
Type
Name
ETA
Phase
SWA5480
B733/L
Michael Becker KSTL
17:25 Z
Cruse
UPS617
H/B748/L
Tyon Cooper
18:22 Z
Climb

Outbound:
Ident
Type
Name
Destination
Phase
UAL256
B738/L
Ethan Rose
KSFO
Boarding
AXX053
H/B752/L
David Roark - KABQ
PANC
Boarding
SWA3404
B738/L
Marcus Wood KHUF
KSMF
Climb

SIDs

STARS

Alternate Minimums

Hot Spots